Wetterdaten: Woche 15.11.10 - 21.11.10 (KW46)
Datum Zeit Temperatur Luftfeuchte Luftdruck Niederschlag Wind Richtung Sonnenschein Solar Taupunkt Windchill Windben
15.11.2010 00:00 9.4 C 95 % 1008.7 hPa 0.0 l/m 0.5 km/h (0 Bft) O 0.00 h 0 W/m 8.6 C 9.4 C 1.0 km/h (0 Bft)
15.11.2010 01:00 9.0 C 96 % 1008.4 hPa 0.0 l/m 0.2 km/h (0 Bft) O 0.00 h 0 W/m 8.4 C 9.0 C 0.6 km/h (0 Bft)
15.11.2010 02:00 9.1 C 97 % 1008.6 hPa 0.0 l/m 0.1 km/h (0 Bft) O 0.00 h 0 W/m 8.6 C 9.1 C 0.2 km/h (0 Bft)
15.11.2010 03:00 9.0 C 97 % 1008.5 hPa 0.0 l/m 1.3 km/h (1 Bft) O 0.00 h 0 W/m 8.5 C 8.9 C 2.6 km/h (1 Bft)
15.11.2010 04:00 9.0 C 97 % 1008.5 hPa 0.0 l/m 0.0 km/h (0 Bft) SO 0.00 h 0 W/m 8.5 C 9.0 C 0.4 km/h (0 Bft)
15.11.2010 05:00 8.9 C 97 % 1008.7 hPa 0.2 l/m 0.0 km/h (0 Bft) N 0.00 h 0 W/m 8.4 C 8.9 C 0.2 km/h (0 Bft)
15.11.2010 06:00 8.9 C 98 % 1008.9 hPa 0.4 l/m 0.0 km/h (0 Bft) N 0.00 h 0 W/m 8.6 C 8.9 C 0.1 km/h (0 Bft)
15.11.2010 07:00 8.8 C 98 % 1009.2 hPa 0.0 l/m 0.0 km/h (0 Bft) N 0.00 h 11 W/m 8.5 C 8.8 C 0.6 km/h (0 Bft)
15.11.2010 08:00 9.4 C 98 % 1009.2 hPa 0.0 l/m 0.2 km/h (0 Bft) SO 0.50 h 65 W/m 9.1 C 9.4 C 1.0 km/h (0 Bft)
15.11.2010 09:00 10.5 C 97 % 1008.7 hPa 0.0 l/m 1.5 km/h (1 Bft) N 0.00 h 100 W/m 10.0 C 10.5 C 3.6 km/h (1 Bft)
15.11.2010 10:00 11.1 C 94 % 1008.9 hPa 0.0 l/m 3.0 km/h (1 Bft) N 0.00 h 66 W/m 10.1 C 11.1 C 5.6 km/h (1 Bft)
15.11.2010 11:00 10.8 C 95 % 1009.1 hPa 0.0 l/m 6.2 km/h (2 Bft) N-NW 0.00 h 47 W/m 10.0 C 10.8 C 9.0 km/h (2 Bft)
15.11.2010 12:00 9.4 C 94 % 1009.8 hPa 0.2 l/m 3.3 km/h (1 Bft) W 0.00 h 24 W/m 8.4 C 9.2 C 5.8 km/h (2 Bft)
15.11.2010 13:00 8.3 C 95 % 1010.0 hPa 0.0 l/m 4.0 km/h (1 Bft) W-NW 0.00 h 20 W/m 7.5 C 8.0 C 6.7 km/h (2 Bft)
15.11.2010 14:00 8.0 C 96 % 1010.2 hPa 0.0 l/m 2.8 km/h (1 Bft) W-NW 0.00 h 17 W/m 7.3 C 7.8 C 5.5 km/h (1 Bft)
15.11.2010 15:00 7.7 C 97 % 1010.7 hPa 0.4 l/m 3.0 km/h (1 Bft) NW 0.00 h 9 W/m 7.1 C 7.4 C 5.7 km/h (1 Bft)
15.11.2010 16:00 7.6 C 97 % 1011.4 hPa 1.6 l/m 1.2 km/h (1 Bft) N-NO 0.00 h 5 W/m 7.2 C 7.6 C 2.7 km/h (1 Bft)
15.11.2010 17:00 7.6 C 97 % 1012.1 hPa 1.4 l/m 0.1 km/h (0 Bft) N 0.00 h 0 W/m 7.2 C 7.6 C 0.5 km/h (0 Bft)
15.11.2010 18:00 7.5 C 98 % 1012.9 hPa 1.0 l/m 0.6 km/h (0 Bft) SW 0.00 h 0 W/m 7.1 C 7.5 C 1.7 km/h (1 Bft)
15.11.2010 19:00 7.5 C 97 % 1013.5 hPa 1.0 l/m 0.0 km/h (0 Bft) W-NW 0.00 h 0 W/m 7.1 C 7.5 C 0.2 km/h (0 Bft)
15.11.2010 20:00 7.2 C 98 % 1014.1 hPa 1.2 l/m 0.6 km/h (0 Bft) W 0.00 h 0 W/m 6.8 C 7.2 C 1.6 km/h (1 Bft)
15.11.2010 21:00 6.9 C 98 % 1014.6 hPa 1.4 l/m 0.8 km/h (0 Bft) W 0.00 h 0 W/m 6.6 C 6.9 C 2.4 km/h (1 Bft)
15.11.2010 22:00 6.8 C 98 % 1014.9 hPa 1.2 l/m 0.2 km/h (0 Bft) W 0.00 h 0 W/m 6.5 C 6.8 C 0.6 km/h (0 Bft)
15.11.2010 23:00 6.8 C 98 % 1015.0 hPa 1.0 l/m 0.1 km/h (0 Bft) W 0.00 h 0 W/m 6.4 C 6.8 C 0.5 km/h (0 Bft)
16.11.2010 00:00 6.6 C 98 % 1015.2 hPa 1.4 l/m 0.2 km/h (0 Bft) W 0.00 h 0 W/m 6.3 C 6.6 C 0.8 km/h (0 Bft)
16.11.2010 01:00 6.3 C 98 % 1015.3 hPa 1.8 l/m 0.3 km/h (0 Bft) W 0.00 h 0 W/m 6.0 C 6.3 C 1.2 km/h (1 Bft)
16.11.2010 02:00 6.1 C 98 % 1015.9 hPa 2.6 l/m 0.0 km/h (0 Bft) W 0.00 h 0 W/m 5.8 C 6.1 C 0.2 km/h (0 Bft)
16.11.2010 03:00 5.7 C 98 % 1015.9 hPa 2.4 l/m 0.1 km/h (0 Bft) W 0.00 h 0 W/m 5.5 C 5.7 C 0.3 km/h (0 Bft)
16.11.2010 04:00 5.5 C 96 % 1015.8 hPa 1.2 l/m 0.2 km/h (0 Bft) S 0.00 h 0 W/m 4.9 C 5.5 C 0.9 km/h (0 Bft)
16.11.2010 05:00 5.1 C 96 % 1016.5 hPa 2.0 l/m 1.6 km/h (1 Bft) S 0.00 h 0 W/m 4.5 C 5.1 C 3.3 km/h (1 Bft)
16.11.2010 06:00 4.5 C 95 % 1016.9 hPa 1.4 l/m 1.7 km/h (1 Bft) S-SO 0.00 h 0 W/m 3.8 C 4.5 C 3.6 km/h (1 Bft)
16.11.2010 07:00 4.3 C 97 % 1017.3 hPa 1.2 l/m 1.5 km/h (1 Bft) S-SO 0.00 h 7 W/m 3.8 C 4.2 C 3.5 km/h (1 Bft)
16.11.2010 08:00 4.1 C 97 % 1018.0 hPa 1.2 l/m 3.3 km/h (1 Bft) S-SO 0.00 h 15 W/m 3.7 C 3.8 C 6.1 km/h (2 Bft)
16.11.2010 09:00 4.1 C 97 % 1018.8 hPa 1.0 l/m 2.2 km/h (1 Bft) S-SO 0.00 h 24 W/m 3.7 C 3.9 C 4.8 km/h (1 Bft)
16.11.2010 10:00 4.1 C 97 % 1018.8 hPa 0.4 l/m 2.1 km/h (1 Bft) S 0.00 h 77 W/m 3.6 C 4.0 C 4.3 km/h (1 Bft)
16.11.2010 11:00 4.4 C 97 % 1018.7 hPa 0.4 l/m 1.7 km/h (1 Bft) S-SW 0.00 h 79 W/m 3.9 C 4.3 C 4.2 km/h (1 Bft)
16.11.2010 12:00 4.5 C 97 % 1018.4 hPa 0.2 l/m 1.6 km/h (1 Bft) S-SO 0.00 h 62 W/m 4.1 C 4.5 C 4.1 km/h (1 Bft)
16.11.2010 13:00 4.8 C 97 % 1018.3 hPa 0.0 l/m 0.8 km/h (0 Bft) S-SO 0.00 h 38 W/m 4.3 C 4.7 C 2.3 km/h (1 Bft)
16.11.2010 14:00 4.8 C 97 % 1018.2 hPa 0.2 l/m 0.0 km/h (0 Bft) S-SO 0.00 h 29 W/m 4.4 C 4.8 C 0.3 km/h (0 Bft)
16.11.2010 15:00 5.0 C 98 % 1018.4 hPa 0.0 l/m 0.0 km/h (0 Bft) N 0.00 h 15 W/m 4.7 C 5.0 C 0.0 km/h (0 Bft)
16.11.2010 16:00 5.0 C 98 % 1018.7 hPa 0.2 l/m 0.0 km/h (0 Bft) N 0.00 h 7 W/m 4.7 C 5.0 C 0.0 km/h (0 Bft)
16.11.2010 17:00 4.9 C 98 % 1018.4 hPa 0.2 l/m 0.0 km/h (0 Bft) N 0.00 h 0 W/m 4.6 C 4.9 C 0.1 km/h (0 Bft)
16.11.2010 18:00 4.9 C 98 % 1018.4 hPa 0.0 l/m 0.0 km/h (0 Bft) S-SO 0.00 h 0 W/m 4.7 C 4.9 C 0.1 km/h (0 Bft)
16.11.2010 19:00 4.9 C 98 % 1018.4 hPa 0.0 l/m 0.0 km/h (0 Bft) N 0.00 h 0 W/m 4.6 C 4.9 C 0.0 km/h (0 Bft)
16.11.2010 20:00 5.0 C 98 % 1018.0 hPa 0.2 l/m 0.0 km/h (0 Bft) N 0.00 h 0 W/m 4.8 C 5.0 C 0.1 km/h (0 Bft)
16.11.2010 21:00 5.0 C 98 % 1017.7 hPa 0.4 l/m 0.3 km/h (0 Bft) O-SO 0.00 h 0 W/m 4.7 C 4.9 C 0.7 km/h (0 Bft)
16.11.2010 22:00 4.8 C 98 % 1017.2 hPa 0.0 l/m 0.4 km/h (0 Bft) N-NO 0.00 h 0 W/m 4.5 C 4.8 C 1.7 km/h (1 Bft)
16.11.2010 23:00 4.8 C 97 % 1016.7 hPa 0.0 l/m 0.2 km/h (0 Bft) NO 0.00 h 0 W/m 4.4 C 4.8 C 1.0 km/h (0 Bft)
17.11.2010 00:00 4.8 C 97 % 1016.1 hPa 0.0 l/m 0.4 km/h (0 Bft) NO 0.00 h 0 W/m 4.3 C 4.8 C 1.2 km/h (1 Bft)
17.11.2010 01:00 4.6 C 97 % 1015.4 hPa 0.0 l/m 1.4 km/h (1 Bft) O-SO 0.00 h 0 W/m 4.2 C 4.6 C 2.7 km/h (1 Bft)
17.11.2010 02:00 4.5 C 97 % 1014.5 hPa 0.0 l/m 0.1 km/h (0 Bft) O-NO 0.00 h 0 W/m 4.0 C 4.5 C 0.8 km/h (0 Bft)
17.11.2010 03:00 4.5 C 97 % 1013.9 hPa 0.0 l/m 0.1 km/h (0 Bft) O-NO 0.00 h 0 W/m 4.1 C 4.5 C 0.6 km/h (0 Bft)
17.11.2010 04:00 4.4 C 97 % 1013.3 hPa 0.0 l/m 0.8 km/h (0 Bft) O-SO 0.00 h 0 W/m 4.0 C 4.4 C 2.3 km/h (1 Bft)
17.11.2010 05:00 4.4 C 96 % 1012.8 hPa 0.2 l/m 0.7 km/h (0 Bft) O 0.00 h 0 W/m 3.9 C 4.4 C 2.0 km/h (1 Bft)
17.11.2010 06:00 4.4 C 96 % 1012.3 hPa 0.0 l/m 0.5 km/h (0 Bft) NO 0.00 h 0 W/m 3.7 C 4.4 C 1.6 km/h (1 Bft)
17.11.2010 07:00 4.2 C 95 % 1011.8 hPa 0.0 l/m 0.5 km/h (0 Bft) O-SO 0.00 h 5 W/m 3.5 C 4.2 C 1.6 km/h (1 Bft)
17.11.2010 08:00 4.3 C 95 % 1011.8 hPa 0.0 l/m 0.2 km/h (0 Bft) NO 0.00 h 14 W/m 3.6 C 4.3 C 0.9 km/h (0 Bft)
17.11.2010 09:00 4.4 C 96 % 1011.3 hPa 0.0 l/m 0.1 km/h (0 Bft) NO 0.00 h 35 W/m 3.7 C 4.4 C 0.9 km/h (0 Bft)
17.11.2010 10:00 4.6 C 95 % 1011.3 hPa 0.0 l/m 0.4 km/h (0 Bft) SO 0.00 h 50 W/m 3.8 C 4.6 C 1.7 km/h (1 Bft)
17.11.2010 11:00 5.1 C 92 % 1010.5 hPa 0.0 l/m 1.4 km/h (1 Bft) O 0.00 h 79 W/m 3.8 C 5.0 C 3.1 km/h (1 Bft)
17.11.2010 12:00 5.3 C 89 % 1009.9 hPa 0.0 l/m 2.1 km/h (1 Bft) O 0.00 h 84 W/m 3.6 C 5.1 C 4.5 km/h (1 Bft)
17.11.2010 13:00 5.6 C 86 % 1009.0 hPa 0.0 l/m 1.8 km/h (1 Bft) O-SO 0.00 h 82 W/m 3.3 C 5.5 C 4.4 km/h (1 Bft)
17.11.2010 14:00 5.4 C 84 % 1008.6 hPa 0.0 l/m 1.4 km/h (1 Bft) O-SO 0.00 h 49 W/m 3.0 C 5.4 C 3.6 km/h (1 Bft)
17.11.2010 15:00 5.4 C 85 % 1008.2 hPa 0.0 l/m 0.9 km/h (0 Bft) O-SO 0.00 h 27 W/m 3.1 C 5.4 C 2.4 km/h (1 Bft)
17.11.2010 16:00 5.2 C 87 % 1008.0 hPa 0.0 l/m 0.6 km/h (0 Bft) O 0.00 h 11 W/m 3.2 C 5.2 C 1.4 km/h (1 Bft)
17.11.2010 17:00 5.0 C 87 % 1008.2 hPa 0.0 l/m 0.1 km/h (0 Bft) O 0.00 h 0 W/m 3.0 C 5.0 C 0.4 km/h (0 Bft)
17.11.2010 18:00 4.7 C 88 % 1008.2 hPa 0.0 l/m 0.5 km/h (0 Bft) O 0.00 h 0 W/m 2.9 C 4.7 C 1.3 km/h (1 Bft)
17.11.2010 19:00 4.1 C 90 % 1008.3 hPa 0.0 l/m 0.2 km/h (0 Bft) O 0.00 h 0 W/m 2.6 C 4.1 C 0.4 km/h (0 Bft)
17.11.2010 20:00 2.7 C 93 % 1008.4 hPa 0.0 l/m 1.9 km/h (1 Bft) O 0.00 h 0 W/m 1.7 C 2.7 C 3.0 km/h (1 Bft)
17.11.2010 21:00 1.8 C 95 % 1008.8 hPa 0.0 l/m 2.4 km/h (1 Bft) O-SO 0.00 h 0 W/m 1.1 C 1.6 C 3.4 km/h (1 Bft)
17.11.2010 22:00 1.2 C 95 % 1009.0 hPa 0.0 l/m 1.8 km/h (1 Bft) O-SO 0.00 h 0 W/m 0.6 C 1.2 C 2.9 km/h (1 Bft)
17.11.2010 23:00 0.9 C 96 % 1009.1 hPa 0.0 l/m 1.2 km/h (1 Bft) O-SO 0.00 h 0 W/m 0.3 C 0.9 C 1.9 km/h (1 Bft)
18.11.2010 00:00 0.6 C 96 % 1009.3 hPa 0.0 l/m 0.5 km/h (0 Bft) O-SO 0.00 h 0 W/m 0.0 C 0.6 C 0.9 km/h (0 Bft)
18.11.2010 01:00 0.1 C 97 % 1009.1 hPa 0.0 l/m 0.2 km/h (0 Bft) O-SO 0.00 h 0 W/m -0.4 C 0.1 C 0.7 km/h (0 Bft)
18.11.2010 02:00 -0.2 C 97 % 1009.1 hPa 0.0 l/m 0.0 km/h (0 Bft) N 0.00 h 0 W/m -0.6 C -0.2 C 0.0 km/h (0 Bft)
18.11.2010 03:00 -0.1 C 97 % 1008.9 hPa 0.0 l/m 0.4 km/h (0 Bft) O-SO 0.00 h 0 W/m -0.5 C -0.1 C 1.0 km/h (0 Bft)
18.11.2010 04:00 0.1 C 98 % 1009.0 hPa 0.0 l/m 0.0 km/h (0 Bft) N 0.00 h 0 W/m -0.2 C 0.1 C 0.2 km/h (0 Bft)
18.11.2010 05:00 0.3 C 98 % 1008.9 hPa 0.0 l/m 1.1 km/h (0 Bft) O-SO 0.00 h 0 W/m -0.0 C 0.1 C 2.1 km/h (1 Bft)
18.11.2010 06:00 0.3 C 98 % 1009.1 hPa 0.0 l/m 1.1 km/h (1 Bft) O-SO 0.00 h 0 W/m 0.0 C 0.3 C 2.3 km/h (1 Bft)
18.11.2010 07:00 0.4 C 98 % 1009.8 hPa 0.0 l/m 0.8 km/h (0 Bft) O-SO 0.00 h 8 W/m 0.2 C 0.4 C 1.6 km/h (1 Bft)
18.11.2010 08:00 0.9 C 98 % 1010.5 hPa 0.0 l/m 0.0 km/h (0 Bft) O-SO 0.00 h 14 W/m 0.7 C 0.9 C 0.2 km/h (0 Bft)
18.11.2010 09:00 1.6 C 99 % 1010.7 hPa 0.2 l/m 0.4 km/h (0 Bft) O-SO 0.00 h 41 W/m 1.4 C 1.6 C 1.2 km/h (1 Bft)
18.11.2010 10:00 2.3 C 99 % 1011.1 hPa 0.0 l/m 1.4 km/h (1 Bft) O-SO 0.00 h 82 W/m 2.2 C 2.3 C 2.5 km/h (1 Bft)
18.11.2010 11:00 3.6 C 98 % 1011.2 hPa 0.2 l/m 0.2 km/h (0 Bft) NW 0.00 h 113 W/m 3.3 C 3.6 C 0.4 km/h (0 Bft)
18.11.2010 12:00 4.6 C 96 % 1011.1 hPa 0.0 l/m 1.0 km/h (0 Bft) O-NO 0.00 h 103 W/m 4.0 C 4.6 C 2.6 km/h (1 Bft)
18.11.2010 13:00 5.2 C 95 % 1011.2 hPa 0.0 l/m 0.2 km/h (0 Bft) SW 0.00 h 75 W/m 4.5 C 5.2 C 1.3 km/h (1 Bft)
18.11.2010 14:00 5.4 C 95 % 1011.5 hPa 0.0 l/m 0.1 km/h (0 Bft) SW 0.00 h 48 W/m 4.7 C 5.4 C 0.9 km/h (0 Bft)
18.11.2010 15:00 5.6 C 95 % 1011.7 hPa 0.0 l/m 0.0 km/h (0 Bft) N 0.00 h 16 W/m 4.8 C 5.6 C 0.1 km/h (0 Bft)
18.11.2010 16:00 5.4 C 95 % 1012.3 hPa 0.0 l/m 0.1 km/h (0 Bft) SW 0.00 h 14 W/m 4.7 C 5.4 C 0.9 km/h (0 Bft)
18.11.2010 17:00 5.2 C 96 % 1012.7 hPa 0.0 l/m 0.2 km/h (0 Bft) SW 0.00 h 0 W/m 4.6 C 5.2 C 0.8 km/h (0 Bft)
18.11.2010 18:00 5.2 C 97 % 1013.3 hPa 0.0 l/m 0.1 km/h (0 Bft) SW 0.00 h 0 W/m 4.7 C 5.2 C 0.5 km/h (0 Bft)
18.11.2010 19:00 5.1 C 97 % 1014.0 hPa 0.0 l/m 0.2 km/h (0 Bft) SW 0.00 h 0 W/m 4.7 C 5.1 C 0.6 km/h (0 Bft)
18.11.2010 20:00 4.8 C 97 % 1014.4 hPa 0.0 l/m 1.5 km/h (1 Bft) S-SO 0.00 h 0 W/m 4.4 C 4.8 C 2.5 km/h (1 Bft)
18.11.2010 21:00 4.2 C 97 % 1014.7 hPa 0.0 l/m 3.7 km/h (1 Bft) O-SO 0.00 h 0 W/m 3.8 C 3.9 C 5.0 km/h (1 Bft)
18.11.2010 22:00 3.6 C 97 % 1015.1 hPa 0.0 l/m 1.4 km/h (1 Bft) SO 0.00 h 0 W/m 3.2 C 3.4 C 2.3 km/h (1 Bft)
18.11.2010 23:00 3.7 C 98 % 1015.2 hPa 0.0 l/m 2.6 km/h (1 Bft) SO 0.00 h 0 W/m 3.4 C 3.6 C 3.9 km/h (1 Bft)
19.11.2010 00:00 3.8 C 98 % 1015.1 hPa 0.0 l/m 0.7 km/h (0 Bft) O-SO 0.00 h 0 W/m 3.6 C 3.8 C 1.7 km/h (1 Bft)
19.11.2010 01:00 3.8 C 98 % 1015.1 hPa 0.0 l/m 0.3 km/h (0 Bft) O-SO 0.00 h 0 W/m 3.6 C 3.8 C 0.5 km/h (0 Bft)
19.11.2010 02:00 4.1 C 98 % 1015.6 hPa 0.0 l/m 0.2 km/h (0 Bft) O-SO 0.00 h 0 W/m 3.8 C 4.1 C 0.7 km/h (0 Bft)
19.11.2010 03:00 4.3 C 98 % 1015.6 hPa 0.0 l/m 0.2 km/h (0 Bft) O-SO 0.00 h 0 W/m 4.0 C 4.3 C 0.5 km/h (0 Bft)
19.11.2010 04:00 4.3 C 98 % 1015.6 hPa 0.0 l/m 1.1 km/h (0 Bft) O-SO 0.00 h 0 W/m 4.0 C 4.3 C 2.1 km/h (1 Bft)
19.11.2010 05:00 4.2 C 98 % 1015.7 hPa 0.0 l/m 1.3 km/h (1 Bft) O-SO 0.00 h 0 W/m 3.9 C 4.1 C 2.0 km/h (1 Bft)
19.11.2010 06:00 4.4 C 98 % 1016.1 hPa 0.0 l/m 1.6 km/h (1 Bft) O-SO 0.00 h 0 W/m 4.1 C 4.3 C 2.9 km/h (1 Bft)
19.11.2010 07:00 4.4 C 99 % 1016.5 hPa 0.0 l/m 0.3 km/h (0 Bft) O-SO 0.00 h 6 W/m 4.2 C 4.4 C 0.9 km/h (0 Bft)
19.11.2010 08:00 4.5 C 99 % 1017.1 hPa 0.0 l/m 1.6 km/h (1 Bft) O-SO 0.03 h 41 W/m 4.3 C 4.3 C 2.3 km/h (1 Bft)
19.11.2010 09:00 5.1 C 98 % 1017.5 hPa 0.0 l/m 0.9 km/h (0 Bft) O-SO 0.13 h 87 W/m 4.8 C 5.1 C 1.9 km/h (1 Bft)
19.11.2010 10:00 5.9 C 96 % 1017.8 hPa 0.0 l/m 0.2 km/h (0 Bft) O-SO 0.03 h 99 W/m 5.3 C 5.9 C 0.9 km/h (0 Bft)
19.11.2010 11:00 6.4 C 93 % 1017.8 hPa 0.0 l/m 0.7 km/h (0 Bft) O-SO 0.00 h 111 W/m 5.4 C 6.4 C 1.8 km/h (1 Bft)
19.11.2010 12:00 7.3 C 92 % 1017.6 hPa 0.0 l/m 0.6 km/h (0 Bft) S-SO 0.17 h 182 W/m 6.1 C 7.3 C 2.3 km/h (1 Bft)
19.11.2010 13:00 8.3 C 88 % 1017.0 hPa 0.0 l/m 0.8 km/h (0 Bft) SW 0.22 h 173 W/m 6.4 C 8.3 C 2.5 km/h (1 Bft)
19.11.2010 14:00 8.5 C 86 % 1016.6 hPa 0.0 l/m 0.8 km/h (0 Bft) S-SO 0.22 h 137 W/m 6.3 C 8.5 C 2.5 km/h (1 Bft)
19.11.2010 15:00 8.5 C 83 % 1016.4 hPa 0.0 l/m 0.2 km/h (0 Bft) SO 0.10 h 68 W/m 5.8 C 8.5 C 0.7 km/h (0 Bft)
19.11.2010 16:00 8.2 C 85 % 1016.6 hPa 0.0 l/m 0.1 km/h (0 Bft) SO 0.02 h 15 W/m 5.9 C 8.2 C 0.4 km/h (0 Bft)
19.11.2010 17:00 7.6 C 90 % 1017.1 hPa 0.0 l/m 0.1 km/h (0 Bft) SO 0.00 h 0 W/m 6.0 C 7.6 C 0.3 km/h (0 Bft)
19.11.2010 18:00 6.3 C 93 % 1017.6 hPa 0.0 l/m 0.8 km/h (0 Bft) SO 0.00 h 0 W/m 5.2 C 6.3 C 1.7 km/h (1 Bft)
19.11.2010 19:00 5.1 C 95 % 1018.2 hPa 0.0 l/m 1.7 km/h (1 Bft) O 0.00 h 0 W/m 4.3 C 5.0 C 2.9 km/h (1 Bft)
19.11.2010 20:00 3.9 C 96 % 1018.4 hPa 0.0 l/m 2.9 km/h (1 Bft) SO 0.00 h 0 W/m 3.3 C 3.8 C 4.1 km/h (1 Bft)
19.11.2010 21:00 3.2 C 96 % 1018.5 hPa 0.0 l/m 1.1 km/h (1 Bft) O-SO 0.00 h 0 W/m 2.6 C 3.2 C 1.7 km/h (1 Bft)
19.11.2010 22:00 3.0 C 97 % 1018.5 hPa 0.0 l/m 1.6 km/h (1 Bft) O-SO 0.00 h 0 W/m 2.6 C 2.9 C 2.5 km/h (1 Bft)
19.11.2010 23:00 3.4 C 98 % 1018.3 hPa 0.0 l/m 0.0 km/h (0 Bft) N 0.00 h 0 W/m 3.2 C 3.4 C 0.1 km/h (0 Bft)
20.11.2010 00:00 3.7 C 98 % 1018.0 hPa 0.0 l/m 0.1 km/h (0 Bft) O-SO 0.00 h 0 W/m 3.4 C 3.7 C 0.7 km/h (0 Bft)
20.11.2010 01:00 3.3 C 98 % 1017.7 hPa 0.2 l/m 0.4 km/h (0 Bft) O-SO 0.00 h 0 W/m 3.1 C 3.3 C 1.7 km/h (1 Bft)
20.11.2010 02:00 3.0 C 98 % 1017.6 hPa 0.0 l/m 0.1 km/h (0 Bft) W-SW 0.00 h 0 W/m 2.7 C 3.0 C 0.9 km/h (0 Bft)
20.11.2010 03:00 2.8 C 98 % 1017.2 hPa 0.0 l/m 0.7 km/h (0 Bft) W-SW 0.00 h 0 W/m 2.6 C 2.8 C 1.9 km/h (1 Bft)
20.11.2010 04:00 2.7 C 98 % 1016.7 hPa 0.0 l/m 0.3 km/h (0 Bft) SO 0.00 h 0 W/m 2.4 C 2.7 C 1.0 km/h (0 Bft)
20.11.2010 05:00 2.7 C 98 % 1016.5 hPa 0.0 l/m 0.2 km/h (0 Bft) O-SO 0.00 h 0 W/m 2.4 C 2.7 C 1.2 km/h (1 Bft)
20.11.2010 06:00 2.7 C 98 % 1016.3 hPa 0.0 l/m 0.5 km/h (0 Bft) N-NO 0.00 h 0 W/m 2.4 C 2.7 C 2.0 km/h (1 Bft)
20.11.2010 07:00 2.7 C 98 % 1016.3 hPa 0.0 l/m 0.7 km/h (0 Bft) N-NO 0.00 h 5 W/m 2.4 C 2.7 C 2.2 km/h (1 Bft)
20.11.2010 08:00 2.9 C 98 % 1016.4 hPa 0.0 l/m 0.3 km/h (0 Bft) N 0.00 h 21 W/m 2.6 C 2.9 C 1.2 km/h (1 Bft)
20.11.2010 09:00 3.3 C 98 % 1016.4 hPa 0.0 l/m 0.6 km/h (0 Bft) N 0.00 h 43 W/m 3.0 C 3.3 C 1.8 km/h (1 Bft)
20.11.2010 10:00 3.9 C 98 % 1015.8 hPa 0.0 l/m 0.7 km/h (0 Bft) N-NO 0.00 h 95 W/m 3.6 C 3.9 C 2.2 km/h (1 Bft)
20.11.2010 11:00 4.6 C 94 % 1015.1 hPa 0.0 l/m 1.8 km/h (1 Bft) O-SO 0.13 h 148 W/m 3.8 C 4.5 C 4.0 km/h (1 Bft)
20.11.2010 12:00 5.0 C 92 % 1014.3 hPa 0.0 l/m 2.2 km/h (1 Bft) O-SO 0.03 h 155 W/m 3.9 C 4.8 C 3.9 km/h (1 Bft)
20.11.2010 13:00 5.4 C 92 % 1013.6 hPa 0.0 l/m 3.6 km/h (1 Bft) O-SO 0.62 h 198 W/m 4.2 C 4.9 C 5.7 km/h (1 Bft)
20.11.2010 14:00 5.9 C 91 % 1012.8 hPa 0.0 l/m 5.1 km/h (1 Bft) O-SO 1.00 h 205 W/m 4.5 C 5.0 C 7.2 km/h (2 Bft)
20.11.2010 15:00 5.3 C 92 % 1012.4 hPa 0.0 l/m 3.2 km/h (1 Bft) O-SO 0.05 h 38 W/m 4.2 C 4.8 C 4.5 km/h (1 Bft)
20.11.2010 16:00 4.9 C 93 % 1012.0 hPa 0.0 l/m 1.3 km/h (1 Bft) O-SO 0.00 h 15 W/m 3.9 C 4.9 C 2.7 km/h (1 Bft)
20.11.2010 17:00 4.5 C 94 % 1011.8 hPa 0.0 l/m 0.1 km/h (0 Bft) O-SO 0.00 h 0 W/m 3.6 C 4.5 C 0.5 km/h (0 Bft)
20.11.2010 18:00 4.0 C 95 % 1011.4 hPa 0.0 l/m 0.2 km/h (0 Bft) O-SO 0.00 h 0 W/m 3.3 C 4.0 C 0.8 km/h (0 Bft)
20.11.2010 19:00 3.8 C 96 % 1010.9 hPa 0.0 l/m 0.7 km/h (0 Bft) O 0.00 h 0 W/m 3.3 C 3.8 C 1.4 km/h (1 Bft)
20.11.2010 20:00 4.0 C 92 % 1010.4 hPa 0.0 l/m 5.7 km/h (1 Bft) O-SO 0.00 h 0 W/m 2.9 C 2.8 C 8.7 km/h (2 Bft)
20.11.2010 21:00 3.9 C 90 % 1010.0 hPa 0.0 l/m 3.6 km/h (1 Bft) O-SO 0.00 h 0 W/m 2.4 C 3.3 C 6.0 km/h (2 Bft)
20.11.2010 22:00 3.6 C 91 % 1009.7 hPa 0.0 l/m 6.8 km/h (2 Bft) O-SO 0.00 h 0 W/m 2.2 C 1.9 C 9.9 km/h (2 Bft)
20.11.2010 23:00 3.7 C 90 % 1008.9 hPa 0.0 l/m 3.4 km/h (1 Bft) O-SO 0.00 h 0 W/m 2.2 C 3.0 C 6.0 km/h (2 Bft)
21.11.2010 00:00 3.8 C 90 % 1008.5 hPa 0.0 l/m 2.7 km/h (1 Bft) O-SO 0.00 h 0 W/m 2.4 C 3.4 C 5.1 km/h (1 Bft)
21.11.2010 01:00 3.6 C 90 % 1008.0 hPa 0.0 l/m 3.0 km/h (1 Bft) O-SO 0.00 h 0 W/m 2.1 C 3.2 C 6.3 km/h (2 Bft)
21.11.2010 02:00 3.3 C 91 % 1007.5 hPa 0.0 l/m 2.7 km/h (1 Bft) O 0.00 h 0 W/m 2.0 C 3.0 C 5.3 km/h (1 Bft)
21.11.2010 03:00 3.1 C 92 % 1007.0 hPa 0.0 l/m 3.1 km/h (1 Bft) O-SO 0.00 h 0 W/m 1.9 C 2.5 C 5.7 km/h (1 Bft)
21.11.2010 04:00 2.8 C 92 % 1006.5 hPa 0.0 l/m 1.3 km/h (1 Bft) O-SO 0.00 h 0 W/m 1.6 C 2.7 C 3.3 km/h (1 Bft)
21.11.2010 05:00 2.8 C 91 % 1006.4 hPa 0.0 l/m 2.0 km/h (1 Bft) N-NO 0.00 h 0 W/m 1.5 C 2.6 C 4.6 km/h (1 Bft)
21.11.2010 06:00 2.7 C 91 % 1006.0 hPa 0.0 l/m 1.9 km/h (1 Bft) O-NO 0.00 h 0 W/m 1.4 C 2.5 C 3.8 km/h (1 Bft)
21.11.2010 07:00 2.7 C 91 % 1006.0 hPa 0.0 l/m 0.6 km/h (0 Bft) O 0.00 h 0 W/m 1.3 C 2.7 C 2.0 km/h (1 Bft)
21.11.2010 08:00 2.8 C 90 % 1006.0 hPa 0.0 l/m 1.5 km/h (1 Bft) N-NO 0.00 h 9 W/m 1.4 C 2.6 C 3.9 km/h (1 Bft)
21.11.2010 09:00 3.0 C 90 % 1006.1 hPa 0.0 l/m 1.2 km/h (1 Bft) O-NO 0.00 h 26 W/m 1.5 C 2.9 C 3.2 km/h (1 Bft)
21.11.2010 10:00 3.3 C 90 % 1006.3 hPa 0.0 l/m 0.8 km/h (0 Bft) NO 0.00 h 33 W/m 1.8 C 3.2 C 2.2 km/h (1 Bft)
21.11.2010 11:00 3.7 C 90 % 1006.0 hPa 0.0 l/m 1.2 km/h (1 Bft) N-NO 0.00 h 52 W/m 2.2 C 3.7 C 3.0 km/h (1 Bft)
21.11.2010 12:00 4.2 C 88 % 1005.4 hPa 0.0 l/m 1.3 km/h (1 Bft) N-NW 0.00 h 77 W/m 2.5 C 4.2 C 3.1 km/h (1 Bft)
21.11.2010 13:00 4.7 C 88 % 1005.0 hPa 0.0 l/m 1.3 km/h (1 Bft) N-NO 0.00 h 94 W/m 2.8 C 4.7 C 3.3 km/h (1 Bft)
21.11.2010 14:00 4.8 C 87 % 1004.4 hPa 0.0 l/m 0.3 km/h (0 Bft) O-NO 0.00 h 29 W/m 2.9 C 4.8 C 1.2 km/h (1 Bft)
21.11.2010 15:00 4.8 C 88 % 1004.4 hPa 0.0 l/m 0.2 km/h (0 Bft) NO 0.00 h 19 W/m 2.9 C 4.8 C 1.1 km/h (1 Bft)
21.11.2010 16:00 4.7 C 88 % 1004.0 hPa 0.0 l/m 2.2 km/h (1 Bft) O-SO 0.00 h 7 W/m 2.9 C 4.6 C 4.1 km/h (1 Bft)
21.11.2010 17:00 4.6 C 88 % 1004.3 hPa 0.0 l/m 1.6 km/h (1 Bft) O-SO 0.00 h 0 W/m 2.8 C 4.5 C 3.4 km/h (1 Bft)
21.11.2010 18:00 4.6 C 89 % 1004.0 hPa 0.0 l/m 0.7 km/h (0 Bft) SO 0.00 h 0 W/m 3.0 C 4.6 C 1.7 km/h (1 Bft)
21.11.2010 19:00 4.6 C 90 % 1003.8 hPa 0.0 l/m 0.7 km/h (0 Bft) O-SO 0.00 h 0 W/m 3.2 C 4.6 C 1.9 km/h (1 Bft)
21.11.2010 20:00 4.6 C 91 % 1003.5 hPa 0.0 l/m 1.8 km/h (1 Bft) O-SO 0.00 h 0 W/m 3.3 C 4.5 C 3.9 km/h (1 Bft)
21.11.2010 21:00 4.6 C 92 % 1003.1 hPa 0.0 l/m 0.6 km/h (0 Bft) O 0.00 h 0 W/m 3.4 C 4.6 C 1.6 km/h (1 Bft)
21.11.2010 22:00 4.5 C 93 % 1002.8 hPa 0.0 l/m 0.2 km/h (0 Bft) O 0.00 h 0 W/m 3.5 C 4.5 C 0.9 km/h (0 Bft)
21.11.2010 23:00 4.5 C 94 % 1002.4 hPa 0.0 l/m 0.0 km/h (0 Bft) N 0.00 h 0 W/m 3.6 C 4.5 C 0.3 km/h (0 Bft)
Min-Datum _ 18.11.10 19.11.10 21.11.10 - 15.11.10 - - - 18.11.10 18.11.10 15.11.10
_ Min-Zeit 03:00 15:03 23:30 - 00:00 - - - 02:28 05:14 00:00
Minimum _ -0.3 C 82 % 1002.3 hPa - 0.0 km/h (0 Bft) - - - -0.6 C -1.4 C 0.0 km/h (0 Bft)
Max-Datum _ 15.11.10 15.11.10 16.11.10 16.11.10 20.11.10 - 15.11.10 20.11.10 15.11.10 15.11.10 21.11.10
_ Max-Zeit 10:20 18:12 09:45 02:03 20:23 - 08:06 13:51 09:27 10:20 02:01
Maximum _ 11.2 C 100 % 1019.1 hPa 2.6 l/m 14.3 km/h
O-SO (3 Bft)
- 0.02 h 294 W/m 10.3 C 11.2 C 22.6 km/h
O (4 Bft)
Durchschnitt _ 4.8 C 95 % 1012.4 hPa #30.2 l/m 1.1 km/h (0 Bft) O-SO #3:15 h 56 W/m 4.0 C 4.7 C 2.3 km/h (1 Bft)
© Kaiko 2010